Time;durP1;ratioP1;P1;durP2;ratioP2;P2;SDS_P1;SDS_P2;PMS_P1;PMS_P2;Temp;Humidity;BMP_temperature;BMP_pressure;BME280_temperature;BME280_humidity;BME280_pressure;Samples;Min_cycle;Max_cycle;Signal;HPM_P1;HPM_P2
2021/03/14 00:00:35;;;;;;;9.45;1.88;;;;;;;4.89;95.16;99667.56;5032184;28;20041;-77
2021/03/14 00:03:01;;;;;;;11.15;2.20;;;;;;;4.83;95.68;99673.22;5030388;28;20034;-78
2021/03/14 00:05:28;;;;;;;8.88;1.48;;;;;;;4.91;95.68;99677.25;5030379;23;20500;-79
2021/03/14 00:07:54;;;;;;;3.33;1.70;;;;;;;4.88;95.65;99671.16;5028001;28;20496;-78
2021/03/14 00:10:20;;;;;;;6.10;1.50;;;;;;;4.78;95.55;99675.31;5043819;28;20051;-78
2021/03/14 00:12:45;;;;;;;12.65;1.92;;;;;;;4.84;95.65;99690.03;5060146;28;20044;-78
2021/03/14 00:15:11;;;;;;;12.65;2.20;;;;;;;4.79;96.27;99689.44;5029851;28;20057;-78
2021/03/14 00:17:37;;;;;;;7.63;1.27;;;;;;;4.77;95.96;99700.16;5026606;28;20041;-78
2021/03/14 00:20:05;;;;;;;9.68;1.90;;;;;;;4.74;96.62;99705.66;5046124;28;20432;-78
2021/03/14 00:22:30;;;;;;;6.32;1.65;;;;;;;4.77;96.86;99705.47;5005525;28;20110;-78
2021/03/14 00:24:56;;;;;;;6.78;2.20;;;;;;;4.78;95.99;99707.19;5046561;28;20479;-77
2021/03/14 00:27:21;;;;;;;3.80;1.48;;;;;;;4.82;96.46;99713.19;5009410;28;20022;-78
2021/03/14 00:29:47;;;;;;;5.30;1.77;;;;;;;4.72;97.28;99710.22;5018128;28;20439;-77
2021/03/14 00:32:12;;;;;;;9.15;2.13;;;;;;;4.76;96.69;99714.41;5013561;28;20033;-78
2021/03/14 00:34:38;;;;;;;6.00;1.88;;;;;;;4.72;96.94;99718.19;5010635;28;20044;-78
2021/03/14 00:37:06;;;;;;;11.57;1.90;;;;;;;4.72;96.92;99728.81;5026943;28;20103;-79
2021/03/14 00:39:31;;;;;;;10.18;1.80;;;;;;;4.71;96.90;99737.72;5012126;28;20033;-78
2021/03/14 00:41:56;;;;;;;8.75;1.95;;;;;;;4.56;97.89;99737.72;5046237;28;20044;-78
2021/03/14 00:44:22;;;;;;;8.18;2.10;;;;;;;4.61;97.77;99741.00;5025778;28;20494;-78
2021/03/14 00:46:47;;;;;;;8.40;1.77;;;;;;;4.64;97.96;99746.13;5031889;28;20132;-78
2021/03/14 00:49:22;;;;;;;7.20;2.45;;;;;;;4.69;98.02;99752.88;5042265;28;20025;-78
2021/03/14 00:51:48;;;;;;;11.13;2.03;;;;;;;4.58;98.42;99762.41;5017489;28;20072;-78
2021/03/14 00:54:14;;;;;;;8.88;2.40;;;;;;;4.59;99.11;99757.00;5026678;28;20445;-78
2021/03/14 00:56:40;;;;;;;7.88;2.03;;;;;;;4.62;99.15;99769.28;5046829;28;20078;-78
2021/03/14 00:59:06;;;;;;;14.43;2.47;;;;;;;4.59;99.65;99770.31;5030666;28;20580;-78
2021/03/14 01:01:31;;;;;;;15.65;2.83;;;;;;;4.66;99.50;99771.69;5012770;28;20030;-78
2021/03/14 01:03:57;;;;;;;10.63;2.63;;;;;;;4.69;99.68;99786.63;5030061;28;20030;-77
2021/03/14 01:06:23;;;;;;;7.70;1.90;;;;;;;4.78;98.89;99786.94;5043634;28;20045;-77
2021/03/14 01:08:49;;;;;;;10.35;2.60;;;;;;;4.81;98.59;99784.09;5030171;28;20025;-78
2021/03/14 01:11:15;;;;;;;10.73;2.55;;;;;;;4.77;99.40;99798.53;5042757;28;20042;-78
2021/03/14 01:14:01;;;;;;;10.10;2.50;;;;;;;4.65;99.71;99799.19;5030997;28;20153;-78
2021/03/14 01:16:37;;;;;;;14.30;3.03;;;;;;;4.78;99.81;99802.91;5012185;28;20041;-78
2021/03/14 01:19:05;;;;;;;13.68;2.40;;;;;;;4.85;99.32;99809.59;5028534;28;20040;-78
2021/03/14 01:21:30;;;;;;;6.97;2.47;;;;;;;4.79;99.32;99801.97;5010006;28;20041;-78
2021/03/14 01:23:55;;;;;;;8.50;2.30;;;;;;;4.86;99.30;99805.16;5049140;28;20033;-78
2021/03/14 01:26:21;;;;;;;9.75;2.28;;;;;;;4.85;99.23;99814.06;5030500;28;20060;-78
2021/03/14 01:28:48;;;;;;;7.00;2.00;;;;;;;4.83;99.38;99816.78;5043184;28;20033;-78
2021/03/14 01:31:14;;;;;;;12.13;2.10;;;;;;;4.83;99.11;99816.78;5009205;28;20033;-78
2021/03/14 01:33:39;;;;;;;7.80;1.80;;;;;;;4.96;99.04;99813.44;5018567;28;20402;-76
2021/03/14 01:36:05;;;;;;;11.13;2.03;;;;;;;4.94;98.82;99816.19;5043712;28;20037;-78
2021/03/14 01:38:31;;;;;;;8.23;2.55;;;;;;;4.87;98.46;99826.34;5026697;28;20032;-78
2021/03/14 01:40:56;;;;;;;3.40;1.50;;;;;;;4.97;98.67;99821.34;5043737;28;20520;-78
2021/03/14 01:43:21;;;;;;;17.42;1.85;;;;;;;4.77;99.44;99822.44;5025363;28;20124;-78
2021/03/14 01:45:47;;;;;;;8.32;1.63;;;;;;;4.88;99.64;99830.69;5044384;28;20090;-78
2021/03/14 01:48:20;;;;;;;10.93;1.77;;;;;;;4.98;98.43;99840.81;5031241;28;20047;-78
2021/03/14 01:50:45;;;;;;;12.07;1.45;;;;;;;4.98;98.04;99830.19;5027081;28;20108;-78
2021/03/14 01:53:11;;;;;;;7.32;2.00;;;;;;;5.00;97.87;99820.34;5043479;28;20064;-78
2021/03/14 01:55:36;;;;;;;8.38;2.00;;;;;;;5.07;97.50;99825.22;5047782;28;20061;-78
2021/03/14 01:58:02;;;;;;;6.63;1.10;;;;;;;5.05;97.64;99829.78;5051805;28;20330;-78
2021/03/14 02:00:27;;;;;;;13.80;1.35;;;;;;;5.04;97.57;99835.16;5009286;28;20129;-78
2021/03/14 02:02:53;;;;;;;7.78;1.88;;;;;;;5.03;97.95;99833.44;5029334;28;20040;-76
2021/03/14 02:05:20;;;;;;;7.88;1.80;;;;;;;4.95;98.01;99844.50;5015247;28;20061;-78
2021/03/14 02:07:52;;;;;;;3.10;1.20;;;;;;;4.95;98.06;99847.16;5025443;28;20552;-78
2021/03/14 02:10:30;;;;;;;6.18;1.92;;;;;;;4.99;98.01;99847.88;5026806;28;20033;-79
2021/03/14 02:13:31;;;;;;;11.40;1.80;;;;;;;5.05;97.60;99848.38;5045697;28;20421;-78
2021/03/14 02:16:02;;;;;;;4.43;1.27;;;;;;;5.06;97.70;99854.56;5023579;28;20060;-78
2021/03/14 02:18:28;;;;;;;7.90;1.60;;;;;;;5.00;98.07;99860.22;5031160;28;20129;-78
2021/03/14 02:20:55;;;;;;;6.35;2.08;;;;;;;4.92;98.69;99863.31;5045090;28;20120;-78
2021/03/14 02:23:43;;;;;;;4.25;1.58;;;;;;;5.02;98.92;99853.00;5050492;28;20843;-78
2021/03/14 02:26:13;;;;;;;9.57;1.63;;;;;;;4.98;99.10;99851.47;5006501;28;20095;-78
2021/03/14 02:28:40;;;;;;;9.98;2.22;;;;;;;5.06;99.76;99866.03;5008515;28;20040;-77
2021/03/14 02:31:06;;;;;;;10.55;1.27;;;;;;;4.94;99.93;99861.41;5026432;28;20037;-79
2021/03/14 02:33:36;;;;;;;9.95;1.40;;;;;;;4.85;100.00;99862.78;5027126;28;20037;-78
2021/03/14 02:36:03;;;;;;;6.07;1.58;;;;;;;4.99;99.66;99871.81;5043396;28;20045;-78
2021/03/14 02:38:30;;;;;;;6.90;1.33;;;;;;;5.00;99.41;99873.53;5028060;28;20033;-78
2021/03/14 02:40:56;;;;;;;8.38;1.58;;;;;;;4.94;99.50;99876.53;5043230;28;20029;-78
2021/03/14 02:43:24;;;;;;;8.18;2.10;;;;;;;5.08;98.91;99881.91;5008687;28;20068;-78
2021/03/14 02:45:52;;;;;;;5.50;1.27;;;;;;;4.98;98.60;99884.25;5028168;28;20029;-78
2021/03/14 02:48:18;;;;;;;9.65;1.88;;;;;;;4.95;98.66;99879.06;5041325;28;20037;-78
2021/03/14 02:50:44;;;;;;;12.27;2.42;;;;;;;4.92;98.51;99883.72;5026049;28;20087;-78
2021/03/14 02:53:13;;;;;;;6.47;1.30;;;;;;;4.86;99.08;99888.44;5050566;28;20056;-77
2021/03/14 02:55:39;;;;;;;11.63;2.30;;;;;;;4.82;99.14;99878.88;5024678;28;20722;-78
2021/03/14 02:58:05;;;;;;;12.82;2.50;;;;;;;4.83;98.61;99893.91;5011471;28;20040;-78
2021/03/14 03:00:34;;;;;;;8.88;1.58;;;;;;;4.71;99.38;99897.22;5029246;28;20041;-78
2021/03/14 03:03:02;;;;;;;5.20;1.33;;;;;;;4.75;98.71;99904.06;5024420;28;20476;-78
2021/03/14 03:05:28;;;;;;;7.45;1.83;;;;;;;4.70;98.73;99897.28;5050551;28;20037;-78
2021/03/14 03:07:56;;;;;;;8.60;1.65;;;;;;;4.74;98.55;99915.66;5027633;28;20037;-78
2021/03/14 03:10:27;;;;;;;7.93;2.05;;;;;;;4.73;98.90;99921.94;5033824;28;20457;-78
2021/03/14 03:12:57;;;;;;;7.25;1.30;;;;;;;4.63;98.84;99923.31;5041670;28;20037;-79
2021/03/14 03:15:23;;;;;;;11.60;1.63;;;;;;;4.63;99.27;99925.16;5009892;28;20031;-78
2021/03/14 03:17:49;;;;;;;9.05;1.58;;;;;;;4.57;99.19;99926.31;5020215;28;20469;-78
2021/03/14 03:20:15;;;;;;;11.38;2.20;;;;;;;4.59;99.59;99936.88;5026304;28;20186;-78
2021/03/14 03:22:41;;;;;;;9.38;1.40;;;;;;;4.63;99.15;99941.09;5006422;28;20037;-78
2021/03/14 03:25:09;;;;;;;10.80;2.28;;;;;;;4.50;99.74;99942.69;5043269;28;20087;-78
2021/03/14 03:27:36;;;;;;;13.73;1.92;;;;;;;4.57;99.84;99944.91;5016009;28;20033;-78
2021/03/14 03:30:07;;;;;;;8.93;1.70;;;;;;;4.57;99.90;99947.56;5020844;28;20524;-78
2021/03/14 03:32:33;;;;;;;8.20;1.80;;;;;;;4.57;100.00;99947.56;5042127;28;20037;-78
2021/03/14 03:34:58;;;;;;;9.48;1.88;;;;;;;4.50;100.00;99959.47;5025727;28;20091;-78
2021/03/14 03:37:24;;;;;;;11.20;2.47;;;;;;;4.61;99.89;99949.16;5023969;28;20572;-77
2021/03/14 03:39:49;;;;;;;6.97;1.80;;;;;;;4.68;99.49;99962.97;5009804;28;20461;-78
2021/03/14 03:42:23;;;;;;;9.85;2.30;;;;;;;4.67;99.42;99966.56;5040649;28;20105;-78
2021/03/14 03:44:50;;;;;;;6.35;1.77;;;;;;;4.63;99.73;99957.88;5008295;28;20033;-78
2021/03/14 03:47:17;;;;;;;13.98;1.80;;;;;;;4.64;99.95;99964.91;5025893;28;20128;-78
2021/03/14 03:49:48;;;;;;;11.45;2.13;;;;;;;4.58;99.87;99964.38;5009582;28;20030;-78
2021/03/14 03:52:17;;;;;;;10.32;1.85;;;;;;;4.59;99.79;99971.41;5011790;28;20410;-77
2021/03/14 03:54:46;;;;;;;13.82;2.42;;;;;;;4.63;99.98;99978.31;5040725;28;20136;-79
2021/03/14 03:57:14;;;;;;;10.90;2.30;;;;;;;4.63;100.00;99979.16;5046443;28;20034;-78
2021/03/14 03:59:40;;;;;;;14.10;2.20;;;;;;;4.67;99.80;99998.47;5043300;28;20072;-77
2021/03/14 04:02:06;;;;;;;10.50;2.35;;;;;;;4.48;100.00;99983.47;5024397;28;20522;-78
2021/03/14 04:04:37;;;;;;;20.13;3.47;;;;;;;4.52;100.00;100001.91;5008771;28;20513;-77
2021/03/14 04:07:03;;;;;;;8.82;2.63;;;;;;;4.62;99.63;99997.84;5038408;28;20033;-79
2021/03/14 04:09:30;;;;;;;9.25;1.98;;;;;;;4.58;99.65;100010.41;5012451;28;20071;-78
2021/03/14 04:11:56;;;;;;;10.77;3.15;;;;;;;4.62;99.74;99998.72;5033957;28;20045;-78
2021/03/14 04:14:22;;;;;;;15.77;2.17;;;;;;;4.61;99.70;100002.31;5037415;28;20406;-78
2021/03/14 04:16:50;;;;;;;7.97;1.70;;;;;;;4.51;100.00;100006.34;5039387;28;20149;-78
2021/03/14 04:19:17;;;;;;;8.07;1.90;;;;;;;4.69;100.00;100016.03;5029546;28;20087;-79
2021/03/14 04:21:43;;;;;;;18.35;2.50;;;;;;;4.62;99.68;100008.47;5035658;28;20025;-79
2021/03/14 04:24:14;;;;;;;12.75;2.17;;;;;;;4.67;99.36;100012.63;5014683;28;20389;-79
2021/03/14 04:26:42;;;;;;;8.23;1.75;;;;;;;4.69;99.37;100015.22;5016597;28;20048;-78
2021/03/14 04:29:09;;;;;;;15.38;2.50;;;;;;;4.63;99.24;100024.31;5047858;28;20033;-79
2021/03/14 04:31:36;;;;;;;16.15;2.15;;;;;;;4.62;99.38;100025.28;5026747;28;20113;-78
2021/03/14 04:34:02;;;;;;;10.88;2.83;;;;;;;4.51;99.98;100022.28;5014409;28;20203;-78
2021/03/14 04:36:28;;;;;;;13.10;2.22;;;;;;;4.58;99.76;100021.06;5014330;28;20056;-78
2021/03/14 04:38:55;;;;;;;13.40;1.98;;;;;;;4.59;100.00;100035.19;5016048;28;20123;-79
2021/03/14 04:41:21;;;;;;;5.88;1.98;;;;;;;4.63;99.23;100032.28;5046253;28;20401;-78
2021/03/14 04:43:47;;;;;;;10.13;2.10;;;;;;;4.60;99.81;100032.47;5025450;28;20659;-78
2021/03/14 04:46:14;;;;;;;7.50;1.70;;;;;;;4.59;99.89;100038.72;5049099;28;20075;-78
2021/03/14 04:48:40;;;;;;;13.18;2.20;;;;;;;4.61;99.43;100036.84;5025434;28;20406;-78
2021/03/14 04:51:06;;;;;;;14.60;2.15;;;;;;;4.57;99.94;100048.56;5043648;28;20060;-78
2021/03/14 04:53:32;;;;;;;7.28;2.55;;;;;;;4.59;100.00;100056.47;5017861;28;20033;-78
2021/03/14 04:55:59;;;;;;;13.10;2.42;;;;;;;4.61;99.76;100060.78;5050847;28;20061;-79
2021/03/14 04:58:25;;;;;;;11.70;1.90;;;;;;;4.57;99.89;100061.00;5026407;28;20029;-78
2021/03/14 05:00:51;;;;;;;20.55;2.90;;;;;;;4.54;99.56;100069.13;5044300;28;20501;-78
2021/03/14 05:03:20;;;;;;;5.25;1.70;;;;;;;4.52;99.91;100077.16;5027496;28;20038;-79
2021/03/14 05:05:46;;;;;;;9.50;1.80;;;;;;;4.53;100.00;100078.03;5051056;28;20045;-77
2021/03/14 05:08:16;;;;;;;11.30;2.20;;;;;;;4.49;100.00;100082.66;5014801;28;20041;-78
2021/03/14 05:10:42;;;;;;;12.80;2.17;;;;;;;4.57;99.53;100080.44;5026027;28;20330;-79
2021/03/14 05:13:09;;;;;;;13.65;2.05;;;;;;;4.43;99.66;100088.25;5042070;28;20034;-78
2021/03/14 05:15:36;;;;;;;12.75;2.90;;;;;;;4.40;100.00;100091.06;5044854;28;20042;-78
2021/03/14 05:18:01;;;;;;;14.23;2.33;;;;;;;4.40;100.00;100088.41;5045800;28;20033;-78
2021/03/14 05:20:28;;;;;;;12.73;2.08;;;;;;;4.33;100.00;100087.84;5009248;28;20136;-78
2021/03/14 05:22:55;;;;;;;12.20;2.13;;;;;;;4.34;100.00;100104.63;5036212;28;20041;-78
2021/03/14 05:25:21;;;;;;;11.60;1.70;;;;;;;4.34;100.00;100099.31;5047600;28;20057;-78
2021/03/14 05:27:50;;;;;;;10.73;2.03;;;;;;;4.26;100.00;100109.50;5028480;28;20335;-78
2021/03/14 05:30:22;;;;;;;18.48;2.88;;;;;;;4.29;100.00;100112.84;5047202;28;20028;-78
2021/03/14 05:32:49;;;;;;;;;;;;;;;4.40;99.99;100115.84;5042771;28;20395;-78
2021/03/14 05:35:15;;;;;;;12.52;2.45;;;;;;;4.31;99.63;100120.75;5027621;28;19917;-78
2021/03/14 05:37:42;;;;;;;12.80;2.90;;;;;;;4.23;100.00;100117.59;5044654;28;20041;-78
2021/03/14 05:40:08;;;;;;;8.48;1.92;;;;;;;4.29;99.72;100117.28;5009682;28;20079;-78
2021/03/14 05:42:34;;;;;;;7.80;2.00;;;;;;;4.34;99.82;100125.91;5012358;28;20033;-78
2021/03/14 05:45:00;;;;;;;12.65;2.20;;;;;;;4.25;99.71;100129.00;5028066;28;20465;-77
2021/03/14 05:47:27;;;;;;;13.88;2.42;;;;;;;4.32;99.61;100131.28;5027644;28;20033;-78
2021/03/14 05:49:52;;;;;;;9.20;2.10;;;;;;;4.23;99.97;100130.88;5038902;28;20056;-78
2021/03/14 05:52:20;;;;;;;11.25;1.83;;;;;;;4.23;100.00;100133.53;5045115;28;20045;-78
2021/03/14 05:54:46;;;;;;;11.43;1.67;;;;;;;4.35;99.88;100140.91;5027640;28;20041;-78
2021/03/14 05:57:18;;;;;;;13.70;2.20;;;;;;;4.20;100.00;100144.28;5026675;28;20033;-78
2021/03/14 05:59:45;;;;;;;7.32;2.25;;;;;;;4.30;100.00;100148.25;5043567;28;20042;-78
2021/03/14 06:02:11;;;;;;;16.95;2.40;;;;;;;4.31;99.82;100152.63;5046006;28;20513;-78
2021/03/14 06:04:37;;;;;;;12.70;2.88;;;;;;;4.35;99.49;100146.22;5027800;28;20232;-77
2021/03/14 06:07:03;;;;;;;9.40;1.88;;;;;;;4.28;100.00;100152.75;5043695;28;20065;-78
2021/03/14 06:09:28;;;;;;;14.07;3.13;;;;;;;4.32;100.00;100157.00;5035007;28;20065;-78
2021/03/14 06:11:54;;;;;;;11.52;2.13;;;;;;;4.30;100.00;100156.22;5035412;28;20041;-79
2021/03/14 06:14:19;;;;;;;10.32;2.03;;;;;;;4.34;100.00;100163.09;5010920;28;20429;-78
2021/03/14 06:16:45;;;;;;;6.15;1.80;;;;;;;4.38;99.76;100162.84;5030859;28;20585;-78
2021/03/14 06:19:11;;;;;;;6.88;2.25;;;;;;;4.35;99.74;100164.81;5007048;28;20034;-79
2021/03/14 06:21:36;;;;;;;15.57;2.33;;;;;;;4.30;100.00;100169.50;5051594;28;20034;-79
2021/03/14 06:24:07;;;;;;;18.77;2.92;;;;;;;4.36;99.88;100172.72;5033079;28;20497;-79
2021/03/14 06:26:32;;;;;;;12.00;2.35;;;;;;;4.37;100.00;100169.13;5035266;28;20034;-78
2021/03/14 06:28:58;;;;;;;10.48;1.90;;;;;;;4.42;99.94;100182.19;5029547;28;20041;-78
2021/03/14 06:31:23;;;;;;;15.32;2.10;;;;;;;4.38;99.76;100181.47;5030193;28;20069;-78
2021/03/14 06:33:49;;;;;;;7.60;2.30;;;;;;;4.37;100.00;100184.22;5009411;28;20486;-78
2021/03/14 06:36:20;;;;;;;13.02;2.17;;;;;;;4.34;100.00;100200.28;5045536;28;20498;-78
2021/03/14 06:38:48;;;;;;;14.07;2.17;;;;;;;4.50;99.95;100200.44;5024629;28;20457;-78
2021/03/14 06:41:20;;;;;;;11.10;2.42;;;;;;;4.55;100.00;100199.28;5029625;28;20517;-78
2021/03/14 06:43:48;;;;;;;11.05;2.22;;;;;;;4.59;99.48;100198.19;5009883;28;20029;-78
2021/03/14 06:46:30;;;;;;;19.48;2.70;;;;;;;4.66;99.61;100190.78;5027538;28;20045;-78
2021/03/14 06:49:14;;;;;;;18.25;2.85;;;;;;;4.66;98.79;100204.06;5022404;28;20038;-79
2021/03/14 06:51:41;;;;;;;18.55;2.85;;;;;;;4.66;99.23;100212.91;5011607;28;20410;-78
2021/03/14 06:54:37;;;;;;;13.27;2.13;;;;;;;4.69;99.19;100215.41;5015077;28;20044;-78
2021/03/14 06:57:10;;;;;;;17.65;2.95;;;;;;;4.72;99.15;100223.25;5029912;28;20049;-78
2021/03/14 06:59:40;;;;;;;20.15;3.08;;;;;;;4.77;99.84;100231.00;5024318;28;20206;-78
2021/03/14 07:02:08;;;;;;;10.30;2.20;;;;;;;4.73;100.00;100237.41;5016299;28;20036;-78
2021/03/14 07:04:45;;;;;;;11.02;2.58;;;;;;;4.82;100.00;100240.47;5014829;28;20033;-78
2021/03/14 07:07:14;;;;;;;11.90;1.80;;;;;;;4.84;100.00;100254.56;5043578;28;20037;-78
2021/03/14 07:09:40;;;;;;;10.60;2.45;;;;;;;4.82;100.00;100251.09;5027699;28;20033;-79
2021/03/14 07:12:35;;;;;;;16.05;3.60;;;;;;;4.72;100.00;100260.47;5026672;28;20091;-78
2021/03/14 07:15:19;;;;;;;12.38;2.30;;;;;;;4.56;100.00;100264.78;5033202;28;20045;-78
2021/03/14 07:17:53;;;;;;;14.82;4.60;;;;;;;4.68;100.00;100272.19;5026349;28;20128;-79
2021/03/14 07:20:21;;;;;;;17.25;2.55;;;;;;;4.59;100.00;100264.63;5041613;28;20049;-79
2021/03/14 07:23:00;;;;;;;17.42;4.00;;;;;;;4.55;100.00;100273.69;5030538;28;20072;-78
2021/03/14 07:25:28;;;;;;;15.40;2.70;;;;;;;4.63;100.00;100274.19;5043362;28;20116;-78
2021/03/14 07:27:54;;;;;;;20.55;3.20;;;;;;;4.66;100.00;100283.81;5032826;28;20098;-78
2021/03/14 07:30:23;;;;;;;19.38;2.65;;;;;;;4.67;100.00;100294.38;5028240;28;20470;-79
2021/03/14 07:32:49;;;;;;;22.63;5.88;;;;;;;4.59;100.00;100296.53;5043021;28;20038;-80
2021/03/14 07:35:16;;;;;;;22.80;4.18;;;;;;;4.54;100.00;100303.00;5023881;28;20029;-79
2021/03/14 07:37:42;;;;;;;16.58;3.47;;;;;;;4.60;100.00;100298.25;5024578;28;20426;-79
2021/03/14 07:40:13;;;;;;;20.17;4.38;;;;;;;4.67;100.00;100305.00;5014072;28;20502;-79
2021/03/14 07:42:40;;;;;;;33.88;4.80;;;;;;;4.73;100.00;100304.72;5030373;28;20033;-80
2021/03/14 07:45:08;;;;;;;15.75;4.40;;;;;;;4.57;100.00;100314.31;5048843;28;20021;-79
2021/03/14 07:47:36;;;;;;;21.30;5.32;;;;;;;4.71;100.00;100317.22;5012390;28;20080;-79
2021/03/14 07:50:04;;;;;;;37.60;9.07;;;;;;;4.74;100.00;100314.44;5012718;28;20111;-79
2021/03/14 07:52:30;;;;;;;51.78;15.68;;;;;;;4.76;100.00;100315.19;5029586;28;20052;-79
2021/03/14 07:55:03;;;;;;;108.30;28.85;;;;;;;4.83;100.00;100314.00;5051677;28;20750;-80
2021/03/14 07:57:30;;;;;;;199.77;49.08;;;;;;;4.90;100.00;100322.53;5046618;28;20038;-80
2021/03/14 07:59:56;;;;;;;75.47;20.42;;;;;;;4.98;100.00;100319.53;5026582;28;20029;-78
2021/03/14 08:02:22;;;;;;;48.40;16.55;;;;;;;5.03;100.00;100328.13;5048293;28;20033;-79
2021/03/14 08:04:55;;;;;;;366.17;83.45;;;;;;;5.12;100.00;100333.03;5046190;28;20401;-78
2021/03/14 08:07:47;;;;;;;228.48;57.28;;;;;;;5.14;100.00;100331.13;5028940;28;20041;-79
2021/03/14 08:10:43;;;;;;;119.88;27.13;;;;;;;5.12;100.00;100331.22;5027084;28;20345;-80
2021/03/14 08:13:27;;;;;;;40.20;14.02;;;;;;;5.22;100.00;100331.63;5043697;28;20473;-79
2021/03/14 08:16:05;;;;;;;23.25;8.65;;;;;;;5.27;100.00;100329.63;5040005;28;20425;-79
2021/03/14 08:18:41;;;;;;;23.23;6.75;;;;;;;5.33;100.00;100331.97;5005486;28;20025;-79
2021/03/14 08:21:26;;;;;;;32.72;13.77;;;;;;;5.31;100.00;100349.81;5036366;28;20123;-80
2021/03/14 08:23:59;;;;;;;19.88;6.65;;;;;;;5.28;100.00;100349.97;5040757;28;20163;-79
2021/03/14 08:26:33;;;;;;;27.90;9.25;;;;;;;5.24;100.00;100353.72;5005168;28;20071;-79
2021/03/14 08:28:59;;;;;;;18.77;6.05;;;;;;;5.32;100.00;100370.16;5011237;28;20033;-79
2021/03/14 08:31:39;;;;;;;20.77;6.45;;;;;;;5.34;100.00;100373.63;5012522;28;20048;-79
2021/03/14 08:34:07;;;;;;;12.50;5.40;;;;;;;5.25;100.00;100372.25;5026214;28;20071;-79
2021/03/14 08:36:42;;;;;;;22.15;5.28;;;;;;;5.25;100.00;100374.03;5027322;28;20042;-78
2021/03/14 08:39:28;;;;;;;17.23;4.38;;;;;;;5.23;100.00;100379.47;5043597;28;20029;-79
2021/03/14 08:42:05;;;;;;;22.85;6.65;;;;;;;5.28;100.00;100381.91;5045314;28;20036;-79
2021/03/14 08:44:41;;;;;;;22.77;5.47;;;;;;;5.27;100.00;100389.00;5022624;28;20041;-80
2021/03/14 08:47:26;;;;;;;22.08;5.32;;;;;;;5.30;100.00;100385.34;5049440;28;20067;-79
2021/03/14 08:50:02;;;;;;;13.45;4.32;;;;;;;5.37;100.00;100386.75;5045049;28;20033;-78
2021/03/14 08:52:37;;;;;;;18.42;6.00;;;;;;;5.46;100.00;100396.97;5028014;28;20048;-80
2021/03/14 08:55:22;;;;;;;21.92;5.50;;;;;;;5.43;100.00;100397.09;5031430;28;20048;-80
2021/03/14 08:57:48;;;;;;;15.70;4.88;;;;;;;5.38;100.00;100400.94;5044025;28;20111;-80
2021/03/14 09:00:14;;;;;;;22.23;5.35;;;;;;;5.36;100.00;100416.13;5034510;28;20033;-80
2021/03/14 09:02:46;;;;;;;15.27;4.47;;;;;;;5.30;100.00;100406.66;5051085;28;20048;-81
2021/03/14 09:05:21;;;;;;;13.70;4.60;;;;;;;5.29;100.00;100412.91;5011084;28;20048;-80
2021/03/14 09:08:01;;;;;;;21.20;5.35;;;;;;;5.35;100.00;100415.28;5017267;28;20033;-80
2021/03/14 09:10:36;;;;;;;20.85;5.40;;;;;;;5.42;100.00;100416.72;5034586;28;20083;-81
2021/03/14 09:13:09;;;;;;;22.58;5.47;;;;;;;5.53;100.00;100418.84;5032063;28;20033;-80
2021/03/14 09:15:48;;;;;;;21.52;5.47;;;;;;;5.59;100.00;100424.72;5046309;28;20033;-80
2021/03/14 09:18:25;;;;;;;19.63;5.95;;;;;;;5.59;100.00;100430.06;5037058;28;20221;-80
2021/03/14 09:21:00;;;;;;;;;;;;;;;5.72;100.00;100429.47;5021226;28;20124;-80
2021/03/14 09:23:42;;;;;;;18.92;5.60;;;;;;;5.83;100.00;100435.97;5019598;28;20377;-79
2021/03/14 09:26:11;;;;;;;19.63;5.50;;;;;;;5.90;100.00;100436.56;5035211;28;20095;-81
2021/03/14 09:28:44;;;;;;;17.40;5.57;;;;;;;5.92;100.00;100442.69;5023744;28;20041;-80
2021/03/14 09:31:12;;;;;;;15.98;5.78;;;;;;;6.08;100.00;100451.66;5015143;28;20037;-80
2021/03/14 09:33:41;;;;;;;25.05;6.93;;;;;;;6.13;100.00;100452.28;5026797;28;20036;-80
2021/03/14 09:36:14;;;;;;;13.73;5.80;;;;;;;6.18;100.00;100449.38;5024504;28;20497;-80
2021/03/14 09:38:56;;;;;;;;;;;;;;;6.23;100.00;100458.03;5013546;28;20037;-81
2021/03/14 09:41:24;;;;;;;18.38;5.95;;;;;;;6.29;100.00;100461.22;5044439;28;19921;-78
2021/03/14 09:43:50;;;;;;;17.80;5.90;;;;;;;6.30;100.00;100470.94;5014137;28;20037;-80
2021/03/14 09:46:20;;;;;;;15.30;6.03;;;;;;;6.40;100.00;100474.88;5030369;28;20049;-80
2021/03/14 09:49:14;;;;;;;14.80;5.55;;;;;;;6.27;100.00;100481.75;5014269;28;20030;-80
2021/03/14 09:51:57;;;;;;;19.65;6.85;;;;;;;6.32;100.00;100484.19;5012104;28;20034;-80
2021/03/14 09:54:26;;;;;;;18.00;6.53;;;;;;;6.29;100.00;100490.56;5042891;28;20553;-80
2021/03/14 09:56:56;;;;;;;16.45;7.65;;;;;;;6.22;100.00;100494.47;5010229;28;20203;-79
2021/03/14 09:59:34;;;;;;;11.70;5.97;;;;;;;6.22;100.00;100493.59;5042694;28;20658;-79
2021/03/14 10:02:38;;;;;;;;;;;;;;;6.08;100.00;100494.28;4981641;28;20042;-79
2021/03/14 10:05:44;;;;;;;13.00;6.53;;;;;;;6.06;100.00;100498.81;4958876;28;19921;-80
2021/03/14 10:08:15;;;;;;;17.13;6.25;;;;;;;6.11;100.00;100506.59;5007434;28;20246;-78
2021/03/14 10:10:41;;;;;;;16.75;6.03;;;;;;;6.20;100.00;100496.34;5030468;28;20049;-78
2021/03/14 10:13:08;;;;;;;17.17;6.65;;;;;;;6.32;100.00;100503.72;5045868;28;20033;-79
2021/03/14 10:15:36;;;;;;;29.17;11.27;;;;;;;6.37;100.00;100507.00;5023421;28;20238;-79
2021/03/14 10:18:07;;;;;;;25.58;12.32;;;;;;;6.50;100.00;100505.44;5017030;28;20195;-79
2021/03/14 10:20:35;;;;;;;20.67;8.18;;;;;;;6.49;100.00;100503.72;5018375;28;20486;-79
2021/03/14 10:23:08;;;;;;;15.70;7.72;;;;;;;6.59;100.00;100503.25;5027917;28;20078;-79
2021/03/14 10:25:41;;;;;;;13.82;6.18;;;;;;;6.67;100.00;100514.38;5044852;28;20044;-80
2021/03/14 10:28:20;;;;;;;11.82;7.15;;;;;;;6.66;100.00;100513.53;5023833;28;20132;-80
2021/03/14 10:31:12;;;;;;;9.63;6.03;;;;;;;6.82;100.00;100526.94;5034279;28;20033;-80
2021/03/14 10:33:45;;;;;;;13.43;5.82;;;;;;;7.01;100.00;100526.84;5020280;28;20037;-80
2021/03/14 10:36:16;;;;;;;16.25;9.00;;;;;;;7.03;100.00;100520.50;5046300;28;20057;-80
2021/03/14 10:38:52;;;;;;;10.80;7.72;;;;;;;7.13;100.00;100524.38;5016327;28;20025;-80
2021/03/14 10:41:25;;;;;;;11.40;7.70;;;;;;;7.22;100.00;100531.88;5034420;28;20117;-80
2021/03/14 10:44:24;;;;;;;11.13;6.80;;;;;;;7.54;100.00;100531.94;5049684;28;20374;-80
2021/03/14 10:46:58;;;;;;;10.48;6.38;;;;;;;7.56;100.00;100530.94;5034011;28;20481;-79
2021/03/14 10:49:33;;;;;;;12.02;6.35;;;;;;;7.79;100.00;100537.66;5029889;28;20026;-80
2021/03/14 10:52:12;;;;;;;10.60;6.43;;;;;;;7.96;100.00;100534.91;5021473;28;20050;-79
2021/03/14 10:54:38;;;;;;;9.63;5.70;;;;;;;8.06;100.00;100546.81;5031648;28;20045;-80
2021/03/14 10:57:26;;;;;;;13.77;7.85;;;;;;;7.95;96.32;100543.91;5047664;28;20785;-79
2021/03/14 11:00:07;;;;;;;9.40;5.97;;;;;;;7.77;96.58;100544.94;5012166;28;20086;-79
2021/03/14 11:02:48;;;;;;;9.25;5.57;;;;;;;7.61;97.71;100560.91;5054502;28;20029;-77
2021/03/14 11:05:21;;;;;;;9.35;5.72;;;;;;;7.62;97.64;100556.44;5023695;28;20609;-79
2021/03/14 11:08:02;;;;;;;12.20;6.05;;;;;;;7.75;97.34;100560.16;5028880;28;20029;-79
2021/03/14 11:10:35;;;;;;;7.82;5.05;;;;;;;7.81;95.34;100566.97;5027514;28;20041;-79
2021/03/14 11:13:16;;;;;;;6.85;4.70;;;;;;;8.04;96.57;100570.09;5038502;28;20037;-77
2021/03/14 11:16:03;;;;;;;8.98;5.70;;;;;;;8.18;95.27;100557.75;5029523;28;20112;-79
2021/03/14 11:18:29;;;;;;;8.43;4.80;;;;;;;8.28;93.44;100569.66;5008993;28;20029;-78
2021/03/14 11:21:05;;;;;;;11.02;5.35;;;;;;;8.20;93.33;100562.09;5026927;28;20124;-77
2021/03/14 11:23:32;;;;;;;9.18;5.40;;;;;;;8.31;92.14;100562.34;5051892;28;20071;-78
2021/03/14 11:25:58;;;;;;;6.53;4.95;;;;;;;8.38;92.52;100568.22;5050060;28;20119;-78
2021/03/14 11:28:26;;;;;;;11.38;6.05;;;;;;;8.60;92.81;100563.34;5042214;28;20120;-78
2021/03/14 11:30:52;;;;;;;9.48;5.55;;;;;;;8.71;92.66;100568.91;5037952;28;20044;-78
2021/03/14 11:33:20;;;;;;;7.50;5.00;;;;;;;8.75;92.27;100557.09;5026746;28;20461;-79
2021/03/14 11:36:02;;;;;;;8.07;4.97;;;;;;;9.09;91.14;100555.91;5023498;28;20030;-78
2021/03/14 11:38:40;;;;;;;8.55;4.97;;;;;;;9.20;90.64;100565.97;5009399;28;20040;-78
2021/03/14 11:41:18;;;;;;;9.45;4.97;;;;;;;9.27;88.63;100561.97;5051208;28;20038;-78